createdAt,value
2018-12-24T00:00:01.929Z,1010.82
2018-12-24T00:01:01.938Z,1010.86
2018-12-24T00:02:01.948Z,1010.81
2018-12-24T00:03:01.964Z,1010.92
2018-12-24T00:04:01.980Z,1010.93
2018-12-24T00:05:01.995Z,1010.94
2018-12-24T00:06:01.997Z,1010.92
2018-12-24T00:07:02.008Z,1010.97
2018-12-24T00:08:02.017Z,1010.92
2018-12-24T00:09:02.032Z,1011.04
2018-12-24T00:10:02.042Z,1011.02
2018-12-24T00:11:02.052Z,1011.04
2018-12-24T00:12:06.958Z,1011.09
2018-12-24T00:13:02.081Z,1011.14
2018-12-24T00:14:02.087Z,1011.19
2018-12-24T00:15:02.098Z,1011.18
2018-12-24T00:16:02.108Z,1011.14
2018-12-24T00:17:02.162Z,1011.08
2018-12-24T00:18:02.132Z,1011.05
2018-12-24T00:19:02.142Z,1011.07
2018-12-24T00:20:02.158Z,1011.07
2018-12-24T00:21:02.165Z,1011.10
2018-12-24T00:22:02.174Z,1011.08
2018-12-24T00:23:02.187Z,1011.10
2018-12-24T00:24:02.200Z,1011.13
2018-12-24T00:25:02.208Z,1011.11
2018-12-24T00:26:02.219Z,1011.19
2018-12-24T00:27:02.232Z,1011.26
2018-12-24T00:28:02.247Z,1011.32
2018-12-24T00:29:02.256Z,1011.40
2018-12-24T00:30:02.269Z,1011.37
2018-12-24T00:31:02.282Z,1011.41
2018-12-24T00:32:02.290Z,1011.44
2018-12-24T00:33:02.301Z,1011.43
2018-12-24T00:34:02.310Z,1011.41
2018-12-24T00:35:02.336Z,1011.45
2018-12-24T00:36:02.339Z,1011.44
2018-12-24T00:37:02.344Z,1011.46
2018-12-24T00:38:02.360Z,1011.51
2018-12-24T00:39:02.367Z,1011.54
2018-12-24T00:40:02.380Z,1011.60
2018-12-24T00:41:02.390Z,1011.61
2018-12-24T00:42:02.401Z,1011.63
2018-12-24T00:43:02.415Z,1011.62
2018-12-24T00:44:02.429Z,1011.65
2018-12-24T00:45:02.436Z,1011.67
2018-12-24T00:46:02.451Z,1011.69
2018-12-24T00:47:02.458Z,1011.72
2018-12-24T00:48:02.470Z,1011.73
2018-12-24T00:49:02.490Z,1011.76
2018-12-24T00:50:02.493Z,1011.80
2018-12-24T00:51:02.504Z,1011.78
2018-12-24T00:52:02.518Z,1011.80
2018-12-24T00:53:02.526Z,1011.80
2018-12-24T00:54:02.536Z,1011.91
2018-12-24T00:55:02.548Z,1011.95
2018-12-24T00:56:02.573Z,1011.94
2018-12-24T00:57:02.571Z,1011.97
2018-12-24T00:58:02.586Z,1011.99
2018-12-24T00:59:02.600Z,1012.06
2018-12-24T01:00:02.617Z,1012.02
2018-12-24T01:01:02.621Z,1012.12
2018-12-24T01:02:02.655Z,1012.13
2018-12-24T01:03:02.638Z,1012.15
2018-12-24T01:04:02.650Z,1012.14
2018-12-24T01:05:02.662Z,1012.18
2018-12-24T01:06:02.677Z,1012.22
2018-12-24T01:07:02.690Z,1012.23
2018-12-24T01:08:02.716Z,1012.26
2018-12-24T01:09:02.709Z,1012.26
2018-12-24T01:10:02.718Z,1012.31
2018-12-24T01:11:02.731Z,1012.33
2018-12-24T01:12:02.741Z,1012.34
2018-12-24T01:13:02.754Z,1012.38
2018-12-24T01:14:02.765Z,1012.40
2018-12-24T01:15:02.778Z,1012.42
2018-12-24T01:16:02.789Z,1012.42
2018-12-24T01:17:02.796Z,1012.51
2018-12-24T01:18:02.809Z,1012.48
2018-12-24T01:19:02.822Z,1012.48
2018-12-24T01:20:02.841Z,1012.53
2018-12-24T01:21:02.844Z,1012.55
2018-12-24T01:22:02.856Z,1012.52
2018-12-24T01:23:02.869Z,1012.59
2018-12-24T01:24:02.877Z,1012.58
2018-12-24T01:25:02.889Z,1012.60
2018-12-24T01:26:02.901Z,1012.61
2018-12-24T01:27:02.912Z,1012.65
2018-12-24T01:28:02.924Z,1012.66
2018-12-24T01:29:02.932Z,1012.65
2018-12-24T01:30:02.947Z,1012.71
2018-12-24T01:31:02.954Z,1012.69
2018-12-24T01:32:02.967Z,1012.71
2018-12-24T01:33:02.980Z,1012.71
2018-12-24T01:34:02.987Z,1012.74
2018-12-24T01:35:03.010Z,1012.70
2018-12-24T01:36:03.011Z,1012.79
2018-12-24T01:37:03.025Z,1012.81
2018-12-24T01:38:03.037Z,1012.85
2018-12-24T01:39:03.051Z,1012.86
2018-12-24T01:40:03.056Z,1012.87
2018-12-24T01:41:03.069Z,1012.87
2018-12-24T01:42:03.090Z,1012.89
2018-12-24T01:43:03.095Z,1012.89
2018-12-24T01:44:03.104Z,1012.91
2018-12-24T01:45:03.110Z,1012.88
2018-12-24T01:46:03.121Z,1012.98
2018-12-24T01:47:03.136Z,1012.99
2018-12-24T01:48:03.147Z,1013.05
2018-12-24T01:49:03.160Z,1013.02
2018-12-24T01:50:03.175Z,1013.06
2018-12-24T01:51:03.183Z,1013.01
2018-12-24T01:52:03.208Z,1013.06
2018-12-24T01:53:03.203Z,1013.08
2018-12-24T01:54:03.236Z,1013.10
2018-12-24T01:55:03.228Z,1013.15
2018-12-24T01:56:03.237Z,1013.19
2018-12-24T01:57:03.254Z,1013.24
2018-12-24T01:58:03.259Z,1013.24
2018-12-24T01:59:03.267Z,1013.29
2018-12-24T02:00:03.283Z,1013.30
2018-12-24T02:01:03.290Z,1013.35
2018-12-24T02:02:03.301Z,1013.34
2018-12-24T02:03:03.314Z,1013.36
2018-12-24T02:04:03.331Z,1013.34
2018-12-24T02:05:03.338Z,1013.39
2018-12-24T02:06:03.350Z,1013.36
2018-12-24T02:07:03.359Z,1013.40
2018-12-24T02:08:03.373Z,1013.43
2018-12-24T02:09:03.384Z,1013.44
2018-12-24T02:10:03.397Z,1013.47
2018-12-24T02:11:03.407Z,1013.47
2018-12-24T02:12:03.419Z,1013.49
2018-12-24T02:13:03.423Z,1013.46
2018-12-24T02:14:03.438Z,1013.47
2018-12-24T02:15:03.451Z,1013.52
2018-12-24T02:16:03.461Z,1013.55
2018-12-24T02:17:03.471Z,1013.57
2018-12-24T02:18:03.490Z,1013.58
2018-12-24T02:19:03.496Z,1013.55
2018-12-24T02:20:03.508Z,1013.57
2018-12-24T02:21:03.520Z,1013.59
2018-12-24T02:22:03.526Z,1013.61
2018-12-24T02:23:03.868Z,1013.60
2018-12-24T02:24:03.599Z,1013.62
2018-12-24T02:25:03.574Z,1013.62
2018-12-24T02:26:03.580Z,1013.64
2018-12-24T02:27:03.595Z,1013.73
2018-12-24T02:28:03.597Z,1013.66
2018-12-24T02:29:03.607Z,1013.67
2018-12-24T02:30:03.620Z,1013.66
2018-12-24T02:31:03.626Z,1013.72
2018-12-24T02:32:03.641Z,1013.71
2018-12-24T02:33:03.654Z,1013.76
2018-12-24T02:34:03.664Z,1013.77
2018-12-24T02:35:03.675Z,1013.77
2018-12-24T02:36:03.683Z,1013.81
2018-12-24T02:37:03.696Z,1013.86
2018-12-24T02:38:03.708Z,1013.87
2018-12-24T02:39:03.720Z,1013.90
2018-12-24T02:40:03.736Z,1013.91
2018-12-24T02:41:03.743Z,1013.99
2018-12-24T02:42:03.769Z,1014.01
2018-12-24T02:43:03.781Z,1014.06
2018-12-24T02:44:03.777Z,1014.02
2018-12-24T02:45:03.805Z,1014.07
2018-12-24T02:46:03.824Z,1014.06
2018-12-24T02:47:03.810Z,1014.05
2018-12-24T02:48:03.825Z,1014.08
2018-12-24T02:49:03.830Z,1014.11
2018-12-24T02:50:03.849Z,1014.13
2018-12-24T02:51:03.852Z,1014.15
2018-12-24T02:52:03.861Z,1014.14
2018-12-24T02:53:03.875Z,1014.17
2018-12-24T02:54:03.881Z,1014.22
2018-12-24T02:55:03.893Z,1014.25
2018-12-24T02:56:03.903Z,1014.24
2018-12-24T02:57:03.916Z,1014.25
2018-12-24T02:58:03.939Z,1014.27
2018-12-24T02:59:03.939Z,1014.28
2018-12-24T03:00:03.953Z,1014.28
2018-12-24T03:01:03.962Z,1014.30
2018-12-24T03:02:03.976Z,1014.32
2018-12-24T03:03:03.984Z,1014.32
2018-12-24T03:04:03.998Z,1014.36
2018-12-24T03:05:04.005Z,1014.38
2018-12-24T03:06:04.015Z,1014.38
2018-12-24T03:07:04.034Z,1014.45
2018-12-24T03:08:04.043Z,1014.48
2018-12-24T03:09:04.050Z,1014.44
2018-12-24T03:10:04.064Z,1014.48
2018-12-24T03:11:04.074Z,1014.54
2018-12-24T03:12:04.089Z,1014.57
2018-12-24T03:13:04.104Z,1014.58
2018-12-24T03:14:04.111Z,1014.59
2018-12-24T03:15:04.118Z,1014.63
2018-12-24T03:16:04.141Z,1014.66
2018-12-24T03:17:04.144Z,1014.65
2018-12-24T03:18:04.154Z,1014.63
2018-12-24T03:19:04.169Z,1014.69
2018-12-24T03:20:04.180Z,1014.72
2018-12-24T03:21:04.190Z,1014.66
2018-12-24T03:22:04.201Z,1014.64
2018-12-24T03:23:04.214Z,1014.68
2018-12-24T03:24:04.223Z,1014.59
2018-12-24T03:25:04.234Z,1014.66
2018-12-24T03:26:04.246Z,1014.73
2018-12-24T03:27:04.263Z,1014.70
2018-12-24T03:28:04.268Z,1014.74
2018-12-24T03:29:04.292Z,1014.75
2018-12-24T03:30:04.295Z,1014.71
2018-12-24T03:31:04.312Z,1014.71
2018-12-24T03:32:04.319Z,1014.62
2018-12-24T03:33:04.345Z,1014.66
2018-12-24T03:34:04.341Z,1014.65
2018-12-24T03:35:04.350Z,1014.71
2018-12-24T03:36:04.364Z,1014.73
2018-12-24T03:37:04.368Z,1014.74
2018-12-24T03:38:04.382Z,1014.75
2018-12-24T03:39:04.393Z,1014.77
2018-12-24T03:40:04.408Z,1014.78
2018-12-24T03:41:04.417Z,1014.84
2018-12-24T03:42:04.433Z,1014.87
2018-12-24T03:43:12.490Z,1014.88
2018-12-24T03:44:04.454Z,1014.95
2018-12-24T03:45:04.467Z,1014.95
2018-12-24T03:46:04.474Z,1015.00
2018-12-24T03:47:04.489Z,1015.08
2018-12-24T03:48:04.497Z,1015.02
2018-12-24T03:49:04.511Z,1015.06
2018-12-24T03:50:04.516Z,1015.09
2018-12-24T03:51:04.530Z,1015.06
2018-12-24T03:52:04.540Z,1015.11
2018-12-24T03:53:04.557Z,1015.17
2018-12-24T03:54:04.565Z,1015.16
2018-12-24T03:55:04.589Z,1015.19
2018-12-24T03:56:04.583Z,1015.16
2018-12-24T03:57:04.598Z,1015.18
2018-12-24T03:58:04.609Z,1015.17
2018-12-24T03:59:04.621Z,1015.19
2018-12-24T04:00:04.629Z,1015.24
2018-12-24T04:01:04.647Z,1015.27
2018-12-24T04:02:04.654Z,1015.28
2018-12-24T04:03:04.667Z,1015.33
2018-12-24T04:04:04.677Z,1015.38
2018-12-24T04:05:04.687Z,1015.36
2018-12-24T04:06:04.699Z,1015.37
2018-12-24T04:07:04.710Z,1015.41
2018-12-24T04:08:04.726Z,1015.43
2018-12-24T04:09:04.730Z,1015.46
2018-12-24T04:10:04.751Z,1015.50
2018-12-24T04:11:04.755Z,1015.50
2018-12-24T04:12:04.772Z,1015.54
2018-12-24T04:13:04.787Z,1015.56
2018-12-24T04:14:04.796Z,1015.63
2018-12-24T04:15:04.798Z,1015.64
2018-12-24T04:16:04.818Z,1015.63
2018-12-24T04:17:04.825Z,1015.73
2018-12-24T04:18:04.831Z,1015.73
2018-12-24T04:19:04.845Z,1015.80
2018-12-24T04:20:04.854Z,1015.87
2018-12-24T04:21:04.869Z,1015.86
2018-12-24T04:22:04.879Z,1015.90
2018-12-24T04:23:04.889Z,1015.91
2018-12-24T04:24:04.902Z,1015.93
2018-12-24T04:25:04.915Z,1015.98
2018-12-24T04:26:04.923Z,1016.00
2018-12-24T04:27:04.962Z,1016.07
2018-12-24T04:28:04.946Z,1016.06
2018-12-24T04:29:04.957Z,1016.12
2018-12-24T04:30:04.969Z,1016.13
2018-12-24T04:31:04.981Z,1016.17
2018-12-24T04:32:04.991Z,1016.18
2018-12-24T04:33:05.004Z,1016.18
2018-12-24T04:34:05.018Z,1016.22
2018-12-24T04:35:05.027Z,1016.25
2018-12-24T04:36:05.039Z,1016.26
2018-12-24T04:37:05.047Z,1016.31
2018-12-24T04:38:05.058Z,1016.33
2018-12-24T04:39:05.076Z,1016.33
2018-12-24T04:40:05.085Z,1016.34
2018-12-24T04:41:05.093Z,1016.39
2018-12-24T04:42:05.118Z,1016.43
2018-12-24T04:43:05.117Z,1016.40
2018-12-24T04:44:05.131Z,1016.41
2018-12-24T04:45:05.145Z,1016.46
2018-12-24T04:46:05.152Z,1016.49
2018-12-24T04:47:05.165Z,1016.50
2018-12-24T04:48:05.182Z,1016.54
2018-12-24T04:49:05.194Z,1016.56
2018-12-24T04:50:05.200Z,1016.60
2018-12-24T04:51:05.210Z,1016.59
2018-12-24T04:52:05.218Z,1016.61
2018-12-24T04:53:05.231Z,1016.61
2018-12-24T04:54:05.242Z,1016.62
2018-12-24T04:55:05.256Z,1016.67
2018-12-24T04:56:05.263Z,1016.67
2018-12-24T04:57:05.273Z,1016.72
2018-12-24T04:58:05.291Z,1016.81
2018-12-24T04:59:05.302Z,1016.83
2018-12-24T05:00:05.312Z,1016.85
2018-12-24T05:01:05.324Z,1016.89
2018-12-24T05:02:05.332Z,1016.92
2018-12-24T05:03:05.351Z,1016.88
2018-12-24T05:04:05.354Z,1016.89
2018-12-24T05:05:05.364Z,1016.91
2018-12-24T05:06:05.375Z,1016.97
2018-12-24T05:07:05.388Z,1016.96
2018-12-24T05:08:05.406Z,1016.96
2018-12-24T05:09:05.437Z,1017.04
2018-12-24T05:10:05.422Z,1017.06
2018-12-24T05:11:05.433Z,1017.08
2018-12-24T05:12:05.445Z,1017.11
2018-12-24T05:13:05.456Z,1017.12
2018-12-24T05:14:05.471Z,1017.22
2018-12-24T05:15:05.477Z,1017.20
2018-12-24T05:16:05.494Z,1017.24
2018-12-24T05:17:05.502Z,1017.25
2018-12-24T05:18:05.512Z,1017.28
2018-12-24T05:19:05.522Z,1017.32
2018-12-24T05:20:05.533Z,1017.35
2018-12-24T05:21:05.544Z,1017.38
2018-12-24T05:22:05.558Z,1017.42
2018-12-24T05:23:05.569Z,1017.41
2018-12-24T05:24:05.583Z,1017.44
2018-12-24T05:25:05.592Z,1017.46
2018-12-24T05:26:05.603Z,1017.53
2018-12-24T05:27:05.618Z,1017.55
2018-12-24T05:28:05.627Z,1017.56
2018-12-24T05:29:05.639Z,1017.60
2018-12-24T05:30:05.650Z,1017.63
2018-12-24T05:31:05.659Z,1017.64
2018-12-24T05:32:05.669Z,1017.70
2018-12-24T05:33:05.680Z,1017.74
2018-12-24T05:34:05.691Z,1017.78
2018-12-24T05:35:05.706Z,1017.85
2018-12-24T05:36:05.718Z,1017.90
2018-12-24T05:37:05.729Z,1017.94
2018-12-24T05:38:05.742Z,1017.90
2018-12-24T05:39:05.752Z,1017.93
2018-12-24T05:40:05.762Z,1018.01
2018-12-24T05:41:05.770Z,1018.05
2018-12-24T05:42:05.783Z,1018.06
2018-12-24T05:43:05.795Z,1018.05
2018-12-24T05:44:05.808Z,1018.08
2018-12-24T05:45:05.825Z,1018.13
2018-12-24T05:46:05.832Z,1018.12
2018-12-24T05:47:05.843Z,1018.16
2018-12-24T05:48:05.855Z,1018.22
2018-12-24T05:49:05.866Z,1018.16
2018-12-24T05:50:05.873Z,1018.25
2018-12-24T05:51:05.886Z,1018.29
2018-12-24T05:52:05.900Z,1018.34
2018-12-24T05:53:05.907Z,1018.37
2018-12-24T05:54:05.925Z,1018.39
2018-12-24T05:55:05.929Z,1018.37
2018-12-24T05:56:05.943Z,1018.37
2018-12-24T05:57:05.956Z,1018.38
2018-12-24T05:58:05.965Z,1018.37
2018-12-24T05:59:05.981Z,1018.39
2018-12-24T06:00:05.988Z,1018.42
2018-12-24T06:01:05.998Z,1018.40
2018-12-24T06:02:06.010Z,1018.41
2018-12-24T06:03:06.021Z,1018.47
2018-12-24T06:04:06.030Z,1018.47
2018-12-24T06:05:06.043Z,1018.49
2018-12-24T06:06:06.053Z,1018.52
2018-12-24T06:07:06.064Z,1018.54
2018-12-24T06:08:06.083Z,1018.60
2018-12-24T06:09:06.087Z,1018.59
2018-12-24T06:10:06.103Z,1018.64
2018-12-24T06:11:06.169Z,1018.66
2018-12-24T06:12:06.126Z,1018.74
2018-12-24T06:13:06.133Z,1018.78
2018-12-24T06:14:06.145Z,1018.79
2018-12-24T06:15:06.154Z,1018.87
2018-12-24T06:16:06.165Z,1018.92
2018-12-24T06:17:06.177Z,1018.95
2018-12-24T06:18:06.188Z,1019.01
2018-12-24T06:19:06.203Z,1019.06
2018-12-24T06:20:06.209Z,1019.17
2018-12-24T06:21:06.222Z,1019.28
2018-12-24T06:22:06.230Z,1019.24
2018-12-24T06:23:06.245Z,1019.28
2018-12-24T06:24:06.256Z,1019.28
2018-12-24T06:25:06.263Z,1019.28
2018-12-24T06:26:06.282Z,1019.30
2018-12-24T06:27:06.293Z,1019.32
2018-12-24T06:28:06.304Z,1019.32
2018-12-24T06:29:06.308Z,1019.31
2018-12-24T06:30:06.321Z,1019.40
2018-12-24T06:31:06.332Z,1019.43
2018-12-24T06:32:06.344Z,1019.53
2018-12-24T06:33:06.356Z,1019.52
2018-12-24T06:34:06.365Z,1019.58
2018-12-24T06:35:06.377Z,1019.64
2018-12-24T06:36:06.389Z,1019.68
2018-12-24T06:37:06.597Z,1019.68
2018-12-24T06:38:06.406Z,1019.76
2018-12-24T06:39:06.418Z,1019.83
2018-12-24T06:40:06.433Z,1019.83
2018-12-24T06:41:06.439Z,1019.87
2018-12-24T06:42:06.454Z,1019.94
2018-12-24T06:43:06.464Z,1020.04
2018-12-24T06:44:07.074Z,1020.03
2018-12-24T06:45:06.493Z,1020.06
2018-12-24T06:46:06.505Z,1020.04
2018-12-24T06:47:06.508Z,1020.07
2018-12-24T06:48:06.517Z,1019.97
2018-12-24T06:49:06.530Z,1020.05
2018-12-24T06:50:06.539Z,1020.08
2018-12-24T06:51:06.550Z,1020.03
2018-12-24T06:52:06.566Z,1020.06
2018-12-24T06:53:06.651Z,1020.07
2018-12-24T06:54:06.607Z,1020.07
2018-12-24T06:55:06.594Z,1020.08
2018-12-24T06:56:06.602Z,1020.09
2018-12-24T06:57:06.615Z,1020.12
2018-12-24T06:58:06.626Z,1020.12
2018-12-24T06:59:06.635Z,1020.15
2018-12-24T07:00:06.646Z,1020.16
2018-12-24T07:01:06.666Z,1020.25
2018-12-24T07:02:06.670Z,1020.23
2018-12-24T07:03:06.682Z,1020.27
2018-12-24T07:04:06.692Z,1020.33
2018-12-24T07:05:06.703Z,1020.38
2018-12-24T07:06:06.715Z,1020.32
2018-12-24T07:07:06.723Z,1020.37
2018-12-24T07:08:06.735Z,1020.37
2018-12-24T07:09:06.748Z,1020.38
2018-12-24T07:10:06.754Z,1020.38
2018-12-24T07:11:06.768Z,1020.35
2018-12-24T07:12:06.781Z,1020.34
2018-12-24T07:13:06.792Z,1020.44
2018-12-24T07:14:15.234Z,1020.37
2018-12-24T07:15:06.813Z,1020.37
2018-12-24T07:16:06.829Z,1020.39
2018-12-24T07:17:06.840Z,1020.41
2018-12-24T07:18:06.842Z,1020.43
2018-12-24T07:19:06.855Z,1020.52
2018-12-24T07:20:06.862Z,1020.58
2018-12-24T07:21:06.878Z,1020.63
2018-12-24T07:22:06.898Z,1020.59
2018-12-24T07:23:06.897Z,1020.59
2018-12-24T07:24:06.909Z,1020.55
2018-12-24T07:25:06.920Z,1020.56
2018-12-24T07:26:09.014Z,1020.56
2018-12-24T07:27:06.938Z,1020.56
2018-12-24T07:28:06.950Z,1020.58
2018-12-24T07:29:06.964Z,1020.60
2018-12-24T07:30:06.975Z,1020.59
2018-12-24T07:31:06.993Z,1020.64
2018-12-24T07:32:07.012Z,1020.68
2018-12-24T07:33:07.008Z,1020.68
2018-12-24T07:34:07.018Z,1020.73
2018-12-24T07:35:07.028Z,1020.74
2018-12-24T07:36:07.039Z,1020.75
2018-12-24T07:37:07.051Z,1020.81
2018-12-24T07:38:07.074Z,1020.82
2018-12-24T07:39:07.087Z,1020.85
2018-12-24T07:40:07.096Z,1020.84
2018-12-24T07:41:07.096Z,1020.85
2018-12-24T07:42:07.106Z,1020.90
2018-12-24T07:43:07.114Z,1020.89
2018-12-24T07:44:07.126Z,1020.87
2018-12-24T07:45:07.135Z,1020.87
2018-12-24T07:46:07.147Z,1020.85
2018-12-24T07:47:07.160Z,1020.86
2018-12-24T07:48:07.478Z,1020.88
2018-12-24T07:49:07.183Z,1020.86
2018-12-24T07:50:07.209Z,1020.90
2018-12-24T07:51:07.203Z,1020.93
2018-12-24T07:52:07.214Z,1020.93
2018-12-24T07:53:07.227Z,1020.96
2018-12-24T07:54:07.238Z,1020.97
2018-12-24T07:55:07.248Z,1020.94
2018-12-24T07:56:07.257Z,1020.93
2018-12-24T07:57:07.267Z,1020.93
2018-12-24T07:58:07.276Z,1020.93
2018-12-24T07:59:07.290Z,1020.96
2018-12-24T08:00:07.303Z,1021.01
2018-12-24T08:01:07.315Z,1021.05
2018-12-24T08:02:07.322Z,1021.08
2018-12-24T08:03:07.339Z,1021.08
2018-12-24T08:04:07.343Z,1021.09
2018-12-24T08:05:07.350Z,1021.13
2018-12-24T08:06:07.366Z,1021.16
2018-12-24T08:07:07.402Z,1021.19
2018-12-24T08:08:07.385Z,1021.22
2018-12-24T08:09:07.393Z,1021.22
2018-12-24T08:10:07.407Z,1021.21
2018-12-24T08:11:07.416Z,1021.20
2018-12-24T08:12:07.430Z,1021.25
2018-12-24T08:13:07.440Z,1021.22
2018-12-24T08:14:07.448Z,1021.21
2018-12-24T08:15:07.457Z,1021.22
2018-12-24T08:16:07.469Z,1021.23
2018-12-24T08:17:07.483Z,1021.23
2018-12-24T08:18:07.496Z,1021.30
2018-12-24T08:19:07.503Z,1021.34
2018-12-24T08:20:07.511Z,1021.42
2018-12-24T08:21:07.523Z,1021.45
2018-12-24T08:22:07.532Z,1021.49
2018-12-24T08:23:07.555Z,1021.51
2018-12-24T08:24:07.556Z,1021.47
2018-12-24T08:25:07.565Z,1021.54
2018-12-24T08:26:07.578Z,1021.60
2018-12-24T08:27:07.586Z,1021.66
2018-12-24T08:28:07.602Z,1021.67
2018-12-24T08:29:07.607Z,1021.70
2018-12-24T08:30:07.620Z,1021.77
2018-12-24T08:31:07.627Z,1021.81
2018-12-24T08:32:07.663Z,1021.80
2018-12-24T08:33:07.699Z,1021.78
2018-12-24T08:34:08.059Z,1021.80
2018-12-24T08:35:08.025Z,1021.87
2018-12-24T08:36:07.683Z,1021.88
2018-12-24T08:37:07.692Z,1021.98
2018-12-24T08:38:07.702Z,1022.04
2018-12-24T08:39:07.714Z,1022.10
2018-12-24T08:40:07.737Z,1022.17
2018-12-24T08:41:07.871Z,1022.24
2018-12-24T08:42:07.770Z,1022.31
2018-12-24T08:43:07.756Z,1022.40
2018-12-24T08:44:07.818Z,1022.46
2018-12-24T08:45:07.778Z,1022.54
2018-12-24T08:46:07.904Z,1022.60
2018-12-24T08:47:07.801Z,1022.70
2018-12-24T08:48:07.932Z,1022.72
2018-12-24T08:49:07.827Z,1022.81
2018-12-24T08:50:07.850Z,1022.86
2018-12-24T08:51:07.843Z,1022.89
2018-12-24T08:52:07.867Z,1022.97
2018-12-24T08:53:07.869Z,1023.02
2018-12-24T08:54:07.871Z,1023.02
2018-12-24T08:55:07.888Z,1023.12
2018-12-24T08:56:07.897Z,1023.20
2018-12-24T08:57:07.907Z,1023.21
2018-12-24T08:58:07.914Z,1023.25
2018-12-24T08:59:07.924Z,1023.32
2018-12-24T09:00:07.937Z,1023.33
2018-12-24T09:01:07.993Z,1023.36
2018-12-24T09:02:07.957Z,1023.40
2018-12-24T09:03:07.969Z,1023.39
2018-12-24T09:04:08.079Z,1023.41
2018-12-24T09:05:07.988Z,1023.45
2018-12-24T09:06:08.000Z,1023.44
2018-12-24T09:07:08.009Z,1023.46
2018-12-24T09:08:08.086Z,1023.47
2018-12-24T09:09:08.046Z,1023.47
2018-12-24T09:10:08.066Z,1023.51
2018-12-24T09:11:08.254Z,1023.55
2018-12-24T09:12:08.065Z,1023.60
2018-12-24T09:13:08.074Z,1023.58
2018-12-24T09:14:08.093Z,1023.62
2018-12-24T09:15:08.094Z,1023.64
2018-12-24T09:16:08.269Z,1023.64
2018-12-24T09:17:08.455Z,1023.62
2018-12-24T09:18:08.386Z,1023.58
2018-12-24T09:19:08.138Z,1023.62
2018-12-24T09:20:08.148Z,1023.64
2018-12-24T09:21:08.159Z,1023.65
2018-12-24T09:22:08.210Z,1023.66
2018-12-24T09:23:08.191Z,1023.65
2018-12-24T09:24:08.198Z,1023.63
2018-12-24T09:25:08.204Z,1023.60
2018-12-24T09:26:08.218Z,1023.62
2018-12-24T09:27:08.225Z,1023.68
2018-12-24T09:28:08.247Z,1023.74
2018-12-24T09:29:08.600Z,1023.75
2018-12-24T09:31:08.264Z,1023.78
2018-12-24T09:32:08.277Z,1023.81
2018-12-24T09:33:08.297Z,1023.76
2018-12-24T09:34:08.296Z,1023.80
2018-12-24T09:35:08.309Z,1023.82
2018-12-24T09:36:08.324Z,1023.84
2018-12-24T09:37:08.328Z,1023.86
2018-12-24T09:38:08.340Z,1023.91
2018-12-24T09:39:08.425Z,1023.86
2018-12-24T09:40:08.362Z,1023.89
2018-12-24T09:41:08.370Z,1023.95
2018-12-24T09:42:08.380Z,1023.98
2018-12-24T09:43:08.390Z,1023.99
2018-12-24T09:44:08.499Z,1024.03
2018-12-24T09:45:08.466Z,1023.99
2018-12-24T09:46:08.732Z,1024.00
2018-12-24T09:47:08.433Z,1024.05
2018-12-24T09:48:08.443Z,1024.05
2018-12-24T09:49:08.453Z,1024.09
2018-12-24T09:50:08.516Z,1024.12
2018-12-24T09:51:08.595Z,1024.10
2018-12-24T09:52:08.491Z,1024.14
2018-12-24T09:53:08.502Z,1024.13
2018-12-24T09:54:08.514Z,1024.16
2018-12-24T09:55:08.522Z,1024.17
2018-12-24T09:56:12.334Z,1024.17
2018-12-24T09:57:08.592Z,1024.15
2018-12-24T09:58:08.604Z,1024.22
2018-12-24T09:59:08.566Z,1024.22
2018-12-24T10:00:08.578Z,1024.24
2018-12-24T10:01:08.651Z,1024.24
2018-12-24T10:02:08.721Z,1024.25
2018-12-24T10:03:08.632Z,1024.21
2018-12-24T10:04:08.620Z,1024.24
2018-12-24T10:05:08.631Z,1024.26
2018-12-24T10:06:08.691Z,1024.24
2018-12-24T10:07:08.650Z,1024.32
2018-12-24T10:08:08.659Z,1024.32
2018-12-24T10:09:08.670Z,1024.30
2018-12-24T10:10:08.684Z,1024.32
2018-12-24T10:11:08.703Z,1024.35
2018-12-24T10:12:08.702Z,1024.33
2018-12-24T10:13:08.716Z,1024.33
2018-12-24T10:14:08.756Z,1024.31
2018-12-24T10:15:08.736Z,1024.36
2018-12-24T10:16:08.750Z,1024.36
2018-12-24T10:17:08.775Z,1024.40
2018-12-24T10:18:08.778Z,1024.37
2018-12-24T10:19:08.781Z,1024.42
2018-12-24T10:21:08.801Z,1024.42
2018-12-24T10:22:08.811Z,1024.45
2018-12-24T10:23:08.864Z,1024.46
2018-12-24T10:24:08.835Z,1024.48
2018-12-24T10:25:08.842Z,1024.46
2018-12-24T10:26:08.891Z,1024.45
2018-12-24T10:27:08.869Z,1024.47
2018-12-24T10:28:08.998Z,1024.52
2018-12-24T10:29:08.891Z,1024.59
2018-12-24T10:30:08.899Z,1024.61
2018-12-24T10:31:09.284Z,1024.60
2018-12-24T10:32:08.919Z,1024.59
2018-12-24T10:33:09.036Z,1024.64
2018-12-24T10:34:09.051Z,1024.59
2018-12-24T10:35:08.968Z,1024.60
2018-12-24T10:36:08.966Z,1024.56
2018-12-24T10:37:08.975Z,1024.60
2018-12-24T10:38:08.987Z,1024.55
2018-12-24T10:39:09.026Z,1024.58
2018-12-24T10:40:09.012Z,1024.62
2018-12-24T10:41:09.018Z,1024.57
2018-12-24T10:42:09.070Z,1024.63
2018-12-24T10:43:09.093Z,1024.62
2018-12-24T10:44:09.051Z,1024.57
2018-12-24T10:45:16.371Z,1024.59
2018-12-24T10:46:09.083Z,1024.60
2018-12-24T10:47:09.131Z,1024.58
2018-12-24T10:48:09.196Z,1024.55
2018-12-24T10:50:09.112Z,1024.57
2018-12-24T10:51:09.165Z,1024.56
2018-12-24T10:52:09.172Z,1024.53
2018-12-24T10:53:09.149Z,1024.50
2018-12-24T10:54:09.159Z,1024.49
2018-12-24T10:55:09.169Z,1024.49
2018-12-24T10:56:09.180Z,1024.48
2018-12-24T10:57:09.193Z,1024.45
2018-12-24T10:58:09.205Z,1024.46
2018-12-24T10:59:09.221Z,1024.46
2018-12-24T11:00:09.529Z,1024.46
2018-12-24T11:01:09.241Z,1024.46
2018-12-24T11:02:09.247Z,1024.49
2018-12-24T11:03:09.254Z,1024.46
2018-12-24T11:04:09.320Z,1024.49
2018-12-24T11:05:09.277Z,1024.44
2018-12-24T11:06:09.294Z,1024.47
2018-12-24T11:07:09.301Z,1024.42
2018-12-24T11:08:09.389Z,1024.40
2018-12-24T11:09:09.378Z,1024.36
2018-12-24T11:10:09.347Z,1024.41
2018-12-24T11:11:09.347Z,1024.47
2018-12-24T11:12:09.351Z,1024.41
2018-12-24T11:13:09.377Z,1024.43
2018-12-24T11:14:09.376Z,1024.44
2018-12-24T11:15:09.397Z,1024.52
2018-12-24T11:16:09.405Z,1024.53
2018-12-24T11:17:09.411Z,1024.54
2018-12-24T11:18:09.426Z,1024.54
2018-12-24T11:19:09.432Z,1024.50
2018-12-24T11:20:09.441Z,1024.49
2018-12-24T11:22:09.527Z,1024.54
2018-12-24T11:23:09.474Z,1024.49
2018-12-24T11:24:09.540Z,1024.51
2018-12-24T11:25:09.544Z,1024.50
2018-12-24T11:26:09.498Z,1024.55
2018-12-24T11:27:09.507Z,1024.54
2018-12-24T11:28:09.569Z,1024.62
2018-12-24T11:29:09.616Z,1024.68
2018-12-24T11:30:09.621Z,1024.67
2018-12-24T11:31:09.556Z,1024.69
2018-12-24T11:32:09.569Z,1024.67
2018-12-24T11:33:09.883Z,1024.71
2018-12-24T11:34:09.585Z,1024.77
2018-12-24T11:35:09.649Z,1024.69
2018-12-24T11:36:09.664Z,1024.71
2018-12-24T11:37:10.388Z,1024.74
2018-12-24T11:38:09.656Z,1024.71
2018-12-24T11:39:09.645Z,1024.73
2018-12-24T11:40:09.761Z,1024.78
2018-12-24T11:41:09.776Z,1024.82
2018-12-24T11:42:09.720Z,1024.91
2018-12-24T11:43:09.685Z,1024.93
2018-12-24T11:44:09.699Z,1024.94
2018-12-24T11:45:09.722Z,1024.97
2018-12-24T11:46:10.156Z,1024.95
2018-12-24T11:47:09.731Z,1024.98
2018-12-24T11:48:10.533Z,1024.96
2018-12-24T11:49:09.749Z,1025.02
2018-12-24T11:50:09.777Z,1024.93
2018-12-24T11:51:09.773Z,1024.93
2018-12-24T11:52:09.787Z,1024.91
2018-12-24T11:53:09.793Z,1024.93
2018-12-24T11:54:09.806Z,1024.95
2018-12-24T11:55:09.818Z,1024.94
2018-12-24T11:56:09.833Z,1024.97
2018-12-24T11:57:09.841Z,1025.01
2018-12-24T11:58:13.254Z,1024.98
2018-12-24T11:59:09.911Z,1024.96
2018-12-24T12:00:09.876Z,1025.05
2018-12-24T12:01:09.888Z,1025.08
2018-12-24T12:02:10.340Z,1025.10
2018-12-24T12:03:09.914Z,1025.09
2018-12-24T12:04:09.919Z,1025.08
2018-12-24T12:05:09.938Z,1025.10
2018-12-24T12:06:09.941Z,1025.12
2018-12-24T12:07:09.951Z,1025.12
2018-12-24T12:08:10.018Z,1025.09
2018-12-24T12:09:09.972Z,1025.12